Eastern Galaxy — DUCH — position and weather

sailwx.info

Track history (hours):
 
Tides and Currents Weather Stations Pressure Air Temp Water Temp Dewpoint Dewpoint Depression Visibility Wind Speed Wind Dir Waves Ship Positions

Eastern Galaxy

Last reported at 2015-Jan-27 14:31 UTC. Time now 2015-Jan-28 22:16 UTC.
Position N 33°52' E 134°56'.

Length 100 m; draft 6.5 m.

Type: Cargo ship. MMSI: 548829000.

Date/timePositionNaut miles runAvg speedWind from/ knotsBaromVisibWave heightAir tempDewpointWater temp
2015-Jan-27 14:31N 33°52' E 134°56'1212.4
2015-Jan-27 13:33N 34°04' E 134°57'1313.2
2015-Jan-27 12:32N 34°17' E 134°58'1212.4
2015-Jan-27 11:33N 34°27' E 135°07'1312.5
2015-Jan-27 10:33N 34°36' E 135°19'7 6.2
2015-Jan-27 09:27N 34°39' E 135°26'0 0.0
2015-Jan-27 08:27N 34°39' E 135°26'0 0.0
2015-Jan-27 07:33N 34°39' E 135°26'0 0.0
2015-Jan-27 06:33N 34°39' E 135°26'0 0.0
2015-Jan-27 05:33N 34°39' E 135°26'0 0.0
2015-Jan-27 04:33N 34°39' E 135°26'0 0.0
2015-Jan-27 03:33N 34°39' E 135°26'0 0.0
2015-Jan-27 02:33N 34°39' E 135°26'0 0.0
2015-Jan-27 01:33N 34°39' E 135°26'0 0.0
2015-Jan-27 00:33N 34°39' E 135°26'0 0.0
2015-Jan-26 23:33N 34°39' E 135°26'0 0.0
2015-Jan-26 22:33N 34°39' E 135°26'0 0.0
2015-Jan-26 21:27N 34°39' E 135°26'0 0.0
2015-Jan-26 20:27N 34°39' E 135°26'0 0.0
2015-Jan-26 19:33N 34°39' E 135°26'0 0.0
2015-Jan-26 18:21N 34°39' E 135°26'0 0.0
2015-Jan-26 17:27N 34°39' E 135°26'0 0.0
2015-Jan-26 16:33N 34°39' E 135°26'0 0.0
2015-Jan-26 15:33N 34°39' E 135°26'0 0.0
2015-Jan-26 14:27N 34°39' E 135°26'0 0.0
2015-Jan-26 13:33N 34°39' E 135°26'0 0.0
2015-Jan-26 12:33N 34°39' E 135°26'0 0.0
2015-Jan-26 11:33N 34°39' E 135°26'0 0.0
2015-Jan-26 10:33N 34°39' E 135°26'0 0.0
2015-Jan-26 09:33N 34°39' E 135°26'0 0.0
2015-Jan-26 08:27N 34°39' E 135°26'0 0.0
2015-Jan-26 07:33N 34°39' E 135°26'0 0.0
2015-Jan-26 06:27N 34°39' E 135°26'0 0.0
2015-Jan-26 05:33N 34°39' E 135°26'0 0.0
2015-Jan-26 04:27N 34°39' E 135°26'0 0.0
2015-Jan-26 03:33N 34°39' E 135°26'0 0.0
2015-Jan-26 02:27N 34°39' E 135°26'0 0.0
2015-Jan-26 01:33N 34°39' E 135°26'3 3.0
2015-Jan-26 00:33N 34°38' E 135°23'9 9.1
2015-Jan-25 23:33N 34°32' E 135°14'9 8.9
2015-Jan-25 22:33N 34°25' E 135°07'8 7.5
2015-Jan-25 21:33N 34°19' E 135°01'1010.1
2015-Jan-25 20:33N 34°10' E 134°59'1212.0
2015-Jan-25 19:33N 33°58' E 134°59'219 9.8
2015-Jan-24 21:20N 34°50' E 139°16'1012.2
2015-Jan-24 20:33N 34°55' E 139°26'1312.8
2015-Jan-24 19:33N 35°03' E 139°39'1211.7
2015-Jan-24 18:33N 35°13' E 139°46'1111.5
2015-Jan-24 17:33N 35°24' E 139°42'4 3.9
2015-Jan-24 16:32N 35°28' E 139°40'0 0.0
2015-Jan-24 15:32N 35°28' E 139°40'0 0.0
2015-Jan-24 14:32N 35°28' E 139°40'0 0.0
2015-Jan-24 13:32N 35°28' E 139°40'0 0.0
2015-Jan-24 12:32N 35°28' E 139°40'0 0.0
2015-Jan-24 11:32N 35°28' E 139°40'0 0.0
2015-Jan-24 10:32N 35°28' E 139°40'0 0.0
2015-Jan-24 09:32N 35°28' E 139°40'0 0.0
2015-Jan-24 08:32N 35°28' E 139°40'0 0.0
2015-Jan-24 07:32N 35°28' E 139°40'0 0.0
2015-Jan-24 06:32N 35°28' E 139°40'0 0.0
2015-Jan-24 05:32N 35°28' E 139°40'0 0.0
2015-Jan-24 04:32N 35°28' E 139°40'3 3.4
2015-Jan-24 03:34N 35°25' E 139°43'1010.4
2015-Jan-24 02:34N 35°15' E 139°47'1110.8
2015-Jan-24 01:33N 35°04' E 139°44'1211.5
2015-Jan-24 00:33N 34°57' E 139°33'1211.3
2015-Jan-23 23:31N 34°51' E 139°21'  
Track history (hours):
 
Tides and Currents Weather Stations Pressure Air Temp Water Temp Dewpoint Dewpoint Depression Visibility Wind Speed Wind Dir Waves Ship Positions

Eastern Galaxy

Last reported at 2015-Jan-27 14:31 UTC. Time now 2015-Jan-28 22:16 UTC.
Position N 33°52' E 134°56'.

Length 100 m; draft 6.5 m.

Type: Cargo ship. MMSI: 548829000.

Date/timePositionNaut miles runAvg speedWind from/ knotsBaromVisibWave heightAir tempDewpointWater temp
2015-Jan-27 14:31N 33°52' E 134°56'1212.4
2015-Jan-27 13:33N 34°04' E 134°57'1313.2
2015-Jan-27 12:32N 34°17' E 134°58'1212.4
2015-Jan-27 11:33N 34°27' E 135°07'1312.5
2015-Jan-27 10:33N 34°36' E 135°19'7 6.2
2015-Jan-27 09:27N 34°39' E 135°26'0 0.0
2015-Jan-27 08:27N 34°39' E 135°26'0 0.0
2015-Jan-27 07:33N 34°39' E 135°26'0 0.0
2015-Jan-27 06:33N 34°39' E 135°26'0 0.0
2015-Jan-27 05:33N 34°39' E 135°26'0 0.0
2015-Jan-27 04:33N 34°39' E 135°26'0 0.0
2015-Jan-27 03:33N 34°39' E 135°26'0 0.0
2015-Jan-27 02:33N 34°39' E 135°26'0 0.0
2015-Jan-27 01:33N 34°39' E 135°26'0 0.0
2015-Jan-27 00:33N 34°39' E 135°26'0 0.0
2015-Jan-26 23:33N 34°39' E 135°26'0 0.0
2015-Jan-26 22:33N 34°39' E 135°26'0 0.0
2015-Jan-26 21:27N 34°39' E 135°26'0 0.0
2015-Jan-26 20:27N 34°39' E 135°26'0 0.0
2015-Jan-26 19:33N 34°39' E 135°26'0 0.0
2015-Jan-26 18:21N 34°39' E 135°26'0 0.0
2015-Jan-26 17:27N 34°39' E 135°26'0 0.0
2015-Jan-26 16:33N 34°39' E 135°26'0 0.0
2015-Jan-26 15:33N 34°39' E 135°26'0 0.0
2015-Jan-26 14:27N 34°39' E 135°26'0 0.0
2015-Jan-26 13:33N 34°39' E 135°26'0 0.0
2015-Jan-26 12:33N 34°39' E 135°26'0 0.0
2015-Jan-26 11:33N 34°39' E 135°26'0 0.0
2015-Jan-26 10:33N 34°39' E 135°26'0 0.0
2015-Jan-26 09:33N 34°39' E 135°26'0 0.0
2015-Jan-26 08:27N 34°39' E 135°26'0 0.0
2015-Jan-26 07:33N 34°39' E 135°26'0 0.0
2015-Jan-26 06:27N 34°39' E 135°26'0 0.0
2015-Jan-26 05:33N 34°39' E 135°26'0 0.0
2015-Jan-26 04:27N 34°39' E 135°26'0 0.0
2015-Jan-26 03:33N 34°39' E 135°26'0 0.0
2015-Jan-26 02:27N 34°39' E 135°26'0 0.0
2015-Jan-26 01:33N 34°39' E 135°26'3 3.0
2015-Jan-26 00:33N 34°38' E 135°23'9 9.1
2015-Jan-25 23:33N 34°32' E 135°14'9 8.9
2015-Jan-25 22:33N 34°25' E 135°07'8 7.5
2015-Jan-25 21:33N 34°19' E 135°01'1010.1
2015-Jan-25 20:33N 34°10' E 134°59'1212.0
2015-Jan-25 19:33N 33°58' E 134°59'219 9.8
2015-Jan-24 21:20N 34°50' E 139°16'1012.2
2015-Jan-24 20:33N 34°55' E 139°26'1312.8
2015-Jan-24 19:33N 35°03' E 139°39'1211.7
2015-Jan-24 18:33N 35°13' E 139°46'1111.5
2015-Jan-24 17:33N 35°24' E 139°42'4 3.9
2015-Jan-24 16:32N 35°28' E 139°40'0 0.0
2015-Jan-24 15:32N 35°28' E 139°40'0 0.0
2015-Jan-24 14:32N 35°28' E 139°40'0 0.0
2015-Jan-24 13:32N 35°28' E 139°40'0 0.0
2015-Jan-24 12:32N 35°28' E 139°40'0 0.0
2015-Jan-24 11:32N 35°28' E 139°40'0 0.0
2015-Jan-24 10:32N 35°28' E 139°40'0 0.0
2015-Jan-24 09:32N 35°28' E 139°40'0 0.0
2015-Jan-24 08:32N 35°28' E 139°40'0 0.0
2015-Jan-24 07:32N 35°28' E 139°40'0 0.0
2015-Jan-24 06:32N 35°28' E 139°40'0 0.0
2015-Jan-24 05:32N 35°28' E 139°40'0 0.0
2015-Jan-24 04:32N 35°28' E 139°40'3 3.4
2015-Jan-24 03:34N 35°25' E 139°43'1010.4
2015-Jan-24 02:34N 35°15' E 139°47'1110.8
2015-Jan-24 01:33N 35°04' E 139°44'1211.5
2015-Jan-24 00:33N 34°57' E 139°33'1211.3
2015-Jan-23 23:31N 34°51' E 139°21'  

Dump ship's entire track history